sensor_id;sensor_type;location;lat;lon;timestamp;temperature;humidity
18191;DHT22;47004;51.366;12.348;2024-02-14T00:00:12;3.90;99.90
18191;DHT22;47004;51.366;12.348;2024-02-14T00:02:15;3.90;99.90
18191;DHT22;47004;51.366;12.348;2024-02-14T00:04:17;3.90;99.90
18191;DHT22;47004;51.366;12.348;2024-02-14T00:06:19;3.90;99.90
18191;DHT22;47004;51.366;12.348;2024-02-14T00:08:21;3.90;99.90
18191;DHT22;47004;51.366;12.348;2024-02-14T00:10:23;3.90;99.90
18191;DHT22;47004;51.366;12.348;2024-02-14T00:12:25;3.90;99.90
18191;DHT22;47004;51.366;12.348;2024-02-14T00:14:27;3.90;99.90
18191;DHT22;47004;51.366;12.348;2024-02-14T00:16:29;3.90;99.90
18191;DHT22;47004;51.366;12.348;2024-02-14T00:18:31;3.90;99.90
18191;DHT22;47004;51.366;12.348;2024-02-14T00:20:33;3.90;99.90
18191;DHT22;47004;51.366;12.348;2024-02-14T00:22:36;3.90;99.90
18191;DHT22;47004;51.366;12.348;2024-02-14T00:24:38;3.90;99.90
18191;DHT22;47004;51.366;12.348;2024-02-14T00:26:40;4.00;99.90
18191;DHT22;47004;51.366;12.348;2024-02-14T00:28:42;4.00;99.90
18191;DHT22;47004;51.366;12.348;2024-02-14T00:30:45;4.00;99.90
18191;DHT22;47004;51.366;12.348;2024-02-14T00:32:49;4.00;99.90
18191;DHT22;47004;51.366;12.348;2024-02-14T00:34:51;4.00;99.90
18191;DHT22;47004;51.366;12.348;2024-02-14T00:36:53;4.10;99.90
18191;DHT22;47004;51.366;12.348;2024-02-14T00:38:55;4.00;99.90
18191;DHT22;47004;51.366;12.348;2024-02-14T00:40:57;4.10;99.90
18191;DHT22;47004;51.366;12.348;2024-02-14T00:42:59;4.10;99.90
18191;DHT22;47004;51.366;12.348;2024-02-14T00:45:01;4.10;99.90
18191;DHT22;47004;51.366;12.348;2024-02-14T00:47:03;4.00;99.90
18191;DHT22;47004;51.366;12.348;2024-02-14T00:49:07;4.10;99.90
18191;DHT22;47004;51.366;12.348;2024-02-14T00:51:09;4.10;99.90
18191;DHT22;47004;51.366;12.348;2024-02-14T00:53:09;4.10;99.90
18191;DHT22;47004;51.366;12.348;2024-02-14T00:55:11;4.10;99.90
18191;DHT22;47004;51.366;12.348;2024-02-14T00:57:13;4.10;99.90
18191;DHT22;47004;51.366;12.348;2024-02-14T00:59:16;4.10;99.90
18191;DHT22;47004;51.366;12.348;2024-02-14T01:01:18;4.10;99.90
18191;DHT22;47004;51.366;12.348;2024-02-14T01:03:20;4.10;99.90
18191;DHT22;47004;51.366;12.348;2024-02-14T01:05:23;4.10;99.90
18191;DHT22;47004;51.366;12.348;2024-02-14T01:07:25;4.00;99.90
18191;DHT22;47004;51.366;12.348;2024-02-14T01:09:27;4.00;99.90
18191;DHT22;47004;51.366;12.348;2024-02-14T01:11:28;4.00;99.90
18191;DHT22;47004;51.366;12.348;2024-02-14T01:13:30;4.10;99.90
18191;DHT22;47004;51.366;12.348;2024-02-14T01:15:31;4.10;99.90
18191;DHT22;47004;51.366;12.348;2024-02-14T01:17:33;4.00;99.90
18191;DHT22;47004;51.366;12.348;2024-02-14T01:19:39;4.00;99.90
18191;DHT22;47004;51.366;12.348;2024-02-14T01:21:42;4.00;99.90
18191;DHT22;47004;51.366;12.348;2024-02-14T01:23:48;4.00;99.90
18191;DHT22;47004;51.366;12.348;2024-02-14T01:25:50;4.00;99.90
18191;DHT22;47004;51.366;12.348;2024-02-14T01:27:55;4.00;99.90
18191;DHT22;47004;51.366;12.348;2024-02-14T01:29:57;4.00;99.90
18191;DHT22;47004;51.366;12.348;2024-02-14T01:31:59;4.00;99.90
18191;DHT22;47004;51.366;12.348;2024-02-14T01:34:01;4.00;99.90
18191;DHT22;47004;51.366;12.348;2024-02-14T01:36:04;4.00;99.90
18191;DHT22;47004;51.366;12.348;2024-02-14T01:38:07;4.00;99.90
18191;DHT22;47004;51.366;12.348;2024-02-14T01:40:10;4.00;99.90
18191;DHT22;47004;51.366;12.348;2024-02-14T01:42:12;4.00;99.90
18191;DHT22;47004;51.366;12.348;2024-02-14T01:44:14;4.10;99.90
18191;DHT22;47004;51.366;12.348;2024-02-14T01:46:16;4.00;99.90
18191;DHT22;47004;51.366;12.348;2024-02-14T01:48:19;4.00;99.90
18191;DHT22;47004;51.366;12.348;2024-02-14T01:50:21;4.10;99.90
18191;DHT22;47004;51.366;12.348;2024-02-14T01:52:29;4.00;99.90
18191;DHT22;47004;51.366;12.348;2024-02-14T01:54:33;4.00;99.90
18191;DHT22;47004;51.366;12.348;2024-02-14T01:56:36;4.00;99.90
18191;DHT22;47004;51.366;12.348;2024-02-14T01:58:39;4.00;99.90
18191;DHT22;47004;51.366;12.348;2024-02-14T02:00:41;4.00;99.90
18191;DHT22;47004;51.366;12.348;2024-02-14T02:02:44;4.00;99.90
18191;DHT22;47004;51.366;12.348;2024-02-14T02:04:47;4.00;99.90
18191;DHT22;47004;51.366;12.348;2024-02-14T02:06:52;4.00;99.90
18191;DHT22;47004;51.366;12.348;2024-02-14T02:08:57;4.00;99.90
18191;DHT22;47004;51.366;12.348;2024-02-14T02:11:00;4.00;99.90
18191;DHT22;47004;51.366;12.348;2024-02-14T02:13:02;4.00;99.90
18191;DHT22;47004;51.366;12.348;2024-02-14T02:15:05;4.00;99.90
18191;DHT22;47004;51.366;12.348;2024-02-14T02:17:07;4.00;99.90
18191;DHT22;47004;51.366;12.348;2024-02-14T02:19:10;4.00;99.90
18191;DHT22;47004;51.366;12.348;2024-02-14T02:21:12;4.00;99.90
18191;DHT22;47004;51.366;12.348;2024-02-14T02:23:15;4.00;99.90
18191;DHT22;47004;51.366;12.348;2024-02-14T02:25:16;4.10;99.90
18191;DHT22;47004;51.366;12.348;2024-02-14T02:27:18;4.00;99.90
18191;DHT22;47004;51.366;12.348;2024-02-14T02:29:20;4.00;99.90
18191;DHT22;47004;51.366;12.348;2024-02-14T02:31:22;4.00;99.90
18191;DHT22;47004;51.366;12.348;2024-02-14T02:33:23;4.00;99.90
18191;DHT22;47004;51.366;12.348;2024-02-14T02:35:26;4.10;99.90
18191;DHT22;47004;51.366;12.348;2024-02-14T02:37:28;4.10;99.90
18191;DHT22;47004;51.366;12.348;2024-02-14T02:39:32;4.10;99.90
18191;DHT22;47004;51.366;12.348;2024-02-14T02:41:34;4.10;99.90
18191;DHT22;47004;51.366;12.348;2024-02-14T02:43:36;4.10;99.90
18191;DHT22;47004;51.366;12.348;2024-02-14T02:45:38;4.10;99.90
18191;DHT22;47004;51.366;12.348;2024-02-14T02:47:40;4.10;99.90
18191;DHT22;47004;51.366;12.348;2024-02-14T02:49:41;4.10;99.90
18191;DHT22;47004;51.366;12.348;2024-02-14T02:51:44;4.10;99.90
18191;DHT22;47004;51.366;12.348;2024-02-14T02:53:47;4.10;99.90
18191;DHT22;47004;51.366;12.348;2024-02-14T02:55:49;4.10;99.90
18191;DHT22;47004;51.366;12.348;2024-02-14T02:57:52;4.10;99.90
18191;DHT22;47004;51.366;12.348;2024-02-14T02:59:54;4.10;99.90
18191;DHT22;47004;51.366;12.348;2024-02-14T03:01:56;4.10;99.90
18191;DHT22;47004;51.366;12.348;2024-02-14T03:03:58;4.20;99.90
18191;DHT22;47004;51.366;12.348;2024-02-14T03:06:00;4.10;99.90
18191;DHT22;47004;51.366;12.348;2024-02-14T03:08:04;4.10;99.90
18191;DHT22;47004;51.366;12.348;2024-02-14T03:10:08;4.10;99.90
18191;DHT22;47004;51.366;12.348;2024-02-14T03:12:12;4.10;99.90
18191;DHT22;47004;51.366;12.348;2024-02-14T03:14:16;4.10;99.90
18191;DHT22;47004;51.366;12.348;2024-02-14T03:16:18;4.10;99.90
18191;DHT22;47004;51.366;12.348;2024-02-14T03:18:20;4.10;99.90
18191;DHT22;47004;51.366;12.348;2024-02-14T03:20:22;4.10;99.90
18191;DHT22;47004;51.366;12.348;2024-02-14T03:22:23;4.10;99.90
18191;DHT22;47004;51.366;12.348;2024-02-14T03:24:25;4.10;99.90
18191;DHT22;47004;51.366;12.348;2024-02-14T03:26:26;4.10;99.90
18191;DHT22;47004;51.366;12.348;2024-02-14T03:28:29;4.10;99.90
18191;DHT22;47004;51.366;12.348;2024-02-14T03:30:31;4.20;99.90
18191;DHT22;47004;51.366;12.348;2024-02-14T03:32:34;4.10;99.90
18191;DHT22;47004;51.366;12.348;2024-02-14T03:34:36;4.20;99.90
18191;DHT22;47004;51.366;12.348;2024-02-14T03:36:38;4.20;99.90
18191;DHT22;47004;51.366;12.348;2024-02-14T03:38:40;4.20;99.90
18191;DHT22;47004;51.366;12.348;2024-02-14T03:40:41;4.20;99.90
18191;DHT22;47004;51.366;12.348;2024-02-14T03:42:46;4.20;99.90
18191;DHT22;47004;51.366;12.348;2024-02-14T03:44:49;4.20;99.90
18191;DHT22;47004;51.366;12.348;2024-02-14T03:46:51;4.20;99.90
18191;DHT22;47004;51.366;12.348;2024-02-14T03:48:53;4.30;99.90
18191;DHT22;47004;51.366;12.348;2024-02-14T03:50:55;4.30;99.90
18191;DHT22;47004;51.366;12.348;2024-02-14T03:52:57;4.30;99.90
18191;DHT22;47004;51.366;12.348;2024-02-14T03:54:59;4.30;99.90
18191;DHT22;47004;51.366;12.348;2024-02-14T03:57:02;4.40;99.90
18191;DHT22;47004;51.366;12.348;2024-02-14T03:59:05;4.40;99.90
18191;DHT22;47004;51.366;12.348;2024-02-14T04:01:09;4.40;99.90
18191;DHT22;47004;51.366;12.348;2024-02-14T04:03:12;4.40;99.90
18191;DHT22;47004;51.366;12.348;2024-02-14T04:05:14;4.40;99.90
18191;DHT22;47004;51.366;12.348;2024-02-14T04:07:16;4.50;99.90
18191;DHT22;47004;51.366;12.348;2024-02-14T04:09:18;4.50;99.90
18191;DHT22;47004;51.366;12.348;2024-02-14T04:11:20;4.50;99.90
18191;DHT22;47004;51.366;12.348;2024-02-14T04:13:24;4.50;99.90
18191;DHT22;47004;51.366;12.348;2024-02-14T04:15:26;4.60;99.90
18191;DHT22;47004;51.366;12.348;2024-02-14T04:17:28;4.60;99.90
18191;DHT22;47004;51.366;12.348;2024-02-14T04:19:30;4.60;99.90
18191;DHT22;47004;51.366;12.348;2024-02-14T04:21:32;4.60;99.90
18191;DHT22;47004;51.366;12.348;2024-02-14T04:23:34;4.60;99.90
18191;DHT22;47004;51.366;12.348;2024-02-14T04:25:36;4.70;99.90
18191;DHT22;47004;51.366;12.348;2024-02-14T04:27:38;4.70;99.90
18191;DHT22;47004;51.366;12.348;2024-02-14T04:29:40;4.70;99.90
18191;DHT22;47004;51.366;12.348;2024-02-14T04:31:42;4.80;99.90
18191;DHT22;47004;51.366;12.348;2024-02-14T04:33:45;4.80;99.90
18191;DHT22;47004;51.366;12.348;2024-02-14T04:35:51;4.80;99.90
18191;DHT22;47004;51.366;12.348;2024-02-14T04:37:53;5.10;99.90
18191;DHT22;47004;51.366;12.348;2024-02-14T04:39:55;4.90;99.90
18191;DHT22;47004;51.366;12.348;2024-02-14T04:41:57;4.90;99.90
18191;DHT22;47004;51.366;12.348;2024-02-14T04:43:59;4.90;99.90
18191;DHT22;47004;51.366;12.348;2024-02-14T04:46:01;4.90;99.90
18191;DHT22;47004;51.366;12.348;2024-02-14T04:48:02;5.00;99.90
18191;DHT22;47004;51.366;12.348;2024-02-14T04:50:06;5.00;99.90
18191;DHT22;47004;51.366;12.348;2024-02-14T04:52:08;5.10;99.90
18191;DHT22;47004;51.366;12.348;2024-02-14T04:54:10;5.10;99.90
18191;DHT22;47004;51.366;12.348;2024-02-14T04:56:11;5.10;99.90
18191;DHT22;47004;51.366;12.348;2024-02-14T04:58:13;5.10;99.90
18191;DHT22;47004;51.366;12.348;2024-02-14T05:00:15;5.20;99.90
18191;DHT22;47004;51.366;12.348;2024-02-14T05:02:17;5.20;99.90
18191;DHT22;47004;51.366;12.348;2024-02-14T05:04:19;5.20;99.90
18191;DHT22;47004;51.366;12.348;2024-02-14T05:06:24;5.30;99.90
18191;DHT22;47004;51.366;12.348;2024-02-14T05:08:26;5.30;99.90
18191;DHT22;47004;51.366;12.348;2024-02-14T05:10:29;5.40;99.90
18191;DHT22;47004;51.366;12.348;2024-02-14T05:12:31;5.40;99.90
18191;DHT22;47004;51.366;12.348;2024-02-14T05:14:37;5.40;99.90
18191;DHT22;47004;51.366;12.348;2024-02-14T05:16:40;5.40;99.90
18191;DHT22;47004;51.366;12.348;2024-02-14T05:18:42;5.50;99.90
18191;DHT22;47004;51.366;12.348;2024-02-14T05:20:44;5.40;99.90
18191;DHT22;47004;51.366;12.348;2024-02-14T05:22:47;5.50;99.90
18191;DHT22;47004;51.366;12.348;2024-02-14T05:24:49;5.50;99.90
18191;DHT22;47004;51.366;12.348;2024-02-14T05:26:51;5.50;99.90
18191;DHT22;47004;51.366;12.348;2024-02-14T05:28:53;5.50;99.90
18191;DHT22;47004;51.366;12.348;2024-02-14T05:30:56;5.60;99.90
18191;DHT22;47004;51.366;12.348;2024-02-14T05:32:58;5.60;99.90
18191;DHT22;47004;51.366;12.348;2024-02-14T05:35:00;5.60;99.90
18191;DHT22;47004;51.366;12.348;2024-02-14T05:37:02;5.60;99.90
18191;DHT22;47004;51.366;12.348;2024-02-14T05:39:07;5.70;99.90
18191;DHT22;47004;51.366;12.348;2024-02-14T05:41:10;5.70;99.90
18191;DHT22;47004;51.366;12.348;2024-02-14T05:43:12;5.70;99.90
18191;DHT22;47004;51.366;12.348;2024-02-14T05:45:14;5.80;99.90
18191;DHT22;47004;51.366;12.348;2024-02-14T05:47:16;5.80;99.90
18191;DHT22;47004;51.366;12.348;2024-02-14T05:49:19;5.80;99.90
18191;DHT22;47004;51.366;12.348;2024-02-14T05:51:22;5.80;99.90
18191;DHT22;47004;51.366;12.348;2024-02-14T05:53:22;5.90;99.90
18191;DHT22;47004;51.366;12.348;2024-02-14T05:55:26;5.90;99.90
18191;DHT22;47004;51.366;12.348;2024-02-14T05:57:28;5.90;99.90
18191;DHT22;47004;51.366;12.348;2024-02-14T05:59:30;5.90;99.90
18191;DHT22;47004;51.366;12.348;2024-02-14T06:01:31;5.90;99.90
18191;DHT22;47004;51.366;12.348;2024-02-14T06:03:33;6.00;99.90
18191;DHT22;47004;51.366;12.348;2024-02-14T06:05:35;6.00;99.90
18191;DHT22;47004;51.366;12.348;2024-02-14T06:07:36;6.00;99.90
18191;DHT22;47004;51.366;12.348;2024-02-14T06:09:37;5.90;99.90
18191;DHT22;47004;51.366;12.348;2024-02-14T06:11:41;5.90;99.90
18191;DHT22;47004;51.366;12.348;2024-02-14T06:13:44;5.90;99.90
18191;DHT22;47004;51.366;12.348;2024-02-14T06:15:46;5.90;99.90
18191;DHT22;47004;51.366;12.348;2024-02-14T06:17:48;5.80;99.90
18191;DHT22;47004;51.366;12.348;2024-02-14T06:19:50;5.80;99.90
18191;DHT22;47004;51.366;12.348;2024-02-14T06:21:52;5.80;99.90
18191;DHT22;47004;51.366;12.348;2024-02-14T06:23:54;5.80;99.90
18191;DHT22;47004;51.366;12.348;2024-02-14T06:25:55;5.90;99.90
18191;DHT22;47004;51.366;12.348;2024-02-14T06:27:59;5.80;99.90
18191;DHT22;47004;51.366;12.348;2024-02-14T06:30:00;5.90;99.90
18191;DHT22;47004;51.366;12.348;2024-02-14T06:32:02;5.90;99.90
18191;DHT22;47004;51.366;12.348;2024-02-14T06:34:04;5.90;99.90
18191;DHT22;47004;51.366;12.348;2024-02-14T06:36:07;5.90;99.90
18191;DHT22;47004;51.366;12.348;2024-02-14T06:38:09;5.90;99.90
18191;DHT22;47004;51.366;12.348;2024-02-14T06:40:12;6.00;99.90
18191;DHT22;47004;51.366;12.348;2024-02-14T06:42:13;6.00;99.90
18191;DHT22;47004;51.366;12.348;2024-02-14T06:44:16;6.00;99.90
18191;DHT22;47004;51.366;12.348;2024-02-14T06:46:18;6.10;99.90
18191;DHT22;47004;51.366;12.348;2024-02-14T06:48:20;6.10;99.90
18191;DHT22;47004;51.366;12.348;2024-02-14T06:50:24;6.10;99.90
18191;DHT22;47004;51.366;12.348;2024-02-14T06:52:26;6.20;99.90
18191;DHT22;47004;51.366;12.348;2024-02-14T06:54:28;6.20;99.90
18191;DHT22;47004;51.366;12.348;2024-02-14T06:56:30;6.20;99.90
18191;DHT22;47004;51.366;12.348;2024-02-14T06:58:32;6.20;99.90
18191;DHT22;47004;51.366;12.348;2024-02-14T07:00:35;6.20;99.90
18191;DHT22;47004;51.366;12.348;2024-02-14T07:02:40;6.20;99.90
18191;DHT22;47004;51.366;12.348;2024-02-14T07:04:43;6.20;99.90
18191;DHT22;47004;51.366;12.348;2024-02-14T07:06:45;6.20;99.90
18191;DHT22;47004;51.366;12.348;2024-02-14T07:08:47;6.20;99.90
18191;DHT22;47004;51.366;12.348;2024-02-14T07:10:50;6.20;99.90
18191;DHT22;47004;51.366;12.348;2024-02-14T07:12:52;6.20;99.90
18191;DHT22;47004;51.366;12.348;2024-02-14T07:14:54;6.20;99.90
18191;DHT22;47004;51.366;12.348;2024-02-14T07:16:57;6.20;99.90
18191;DHT22;47004;51.366;12.348;2024-02-14T07:18:58;6.20;99.90
18191;DHT22;47004;51.366;12.348;2024-02-14T07:21:00;6.20;99.90
18191;DHT22;47004;51.366;12.348;2024-02-14T07:23:02;6.20;99.90
18191;DHT22;47004;51.366;12.348;2024-02-14T07:25:08;6.20;99.90
18191;DHT22;47004;51.366;12.348;2024-02-14T07:27:11;6.20;99.90
18191;DHT22;47004;51.366;12.348;2024-02-14T07:29:13;6.20;99.90
18191;DHT22;47004;51.366;12.348;2024-02-14T07:31:15;6.30;99.90
18191;DHT22;47004;51.366;12.348;2024-02-14T07:33:20;6.30;99.90
18191;DHT22;47004;51.366;12.348;2024-02-14T07:35:21;6.30;99.90
18191;DHT22;47004;51.366;12.348;2024-02-14T07:37:23;6.30;99.90
18191;DHT22;47004;51.366;12.348;2024-02-14T07:39:25;6.30;99.90
18191;DHT22;47004;51.366;12.348;2024-02-14T07:41:27;6.40;99.90
18191;DHT22;47004;51.366;12.348;2024-02-14T07:43:29;6.40;99.90
18191;DHT22;47004;51.366;12.348;2024-02-14T07:45:31;6.40;99.90
18191;DHT22;47004;51.366;12.348;2024-02-14T07:47:32;6.40;99.90
18191;DHT22;47004;51.366;12.348;2024-02-14T07:49:35;6.40;99.90
18191;DHT22;47004;51.366;12.348;2024-02-14T07:51:37;6.50;99.90
18191;DHT22;47004;51.366;12.348;2024-02-14T07:53:39;6.40;99.90
18191;DHT22;47004;51.366;12.348;2024-02-14T07:55:41;6.50;99.90
18191;DHT22;47004;51.366;12.348;2024-02-14T07:57:42;6.50;99.90
18191;DHT22;47004;51.366;12.348;2024-02-14T07:59:44;6.50;99.90
18191;DHT22;47004;51.366;12.348;2024-02-14T08:01:45;6.60;99.90
18191;DHT22;47004;51.366;12.348;2024-02-14T08:03:47;6.60;99.90
18191;DHT22;47004;51.366;12.348;2024-02-14T08:05:50;6.70;99.90
18191;DHT22;47004;51.366;12.348;2024-02-14T08:07:51;6.70;99.90
18191;DHT22;47004;51.366;12.348;2024-02-14T08:09:54;6.70;99.90
18191;DHT22;47004;51.366;12.348;2024-02-14T08:11:55;6.80;99.90
18191;DHT22;47004;51.366;12.348;2024-02-14T08:13:57;6.90;99.90
18191;DHT22;47004;51.366;12.348;2024-02-14T08:16:00;6.90;99.90
18191;DHT22;47004;51.366;12.348;2024-02-14T08:18:02;7.00;99.90
18191;DHT22;47004;51.366;12.348;2024-02-14T08:20:05;7.10;99.90
18191;DHT22;47004;51.366;12.348;2024-02-14T08:22:09;7.20;99.90
18191;DHT22;47004;51.366;12.348;2024-02-14T08:24:11;7.20;99.90
18191;DHT22;47004;51.366;12.348;2024-02-14T08:26:13;7.30;99.90
18191;DHT22;47004;51.366;12.348;2024-02-14T08:28:16;7.40;99.90
18191;DHT22;47004;51.366;12.348;2024-02-14T08:30:19;7.40;99.90
18191;DHT22;47004;51.366;12.348;2024-02-14T08:32:21;7.40;99.90
18191;DHT22;47004;51.366;12.348;2024-02-14T08:34:23;7.50;99.90
18191;DHT22;47004;51.366;12.348;2024-02-14T08:36:25;7.60;99.90
18191;DHT22;47004;51.366;12.348;2024-02-14T08:38:28;7.60;99.90
18191;DHT22;47004;51.366;12.348;2024-02-14T08:40:30;7.60;99.90
18191;DHT22;47004;51.366;12.348;2024-02-14T08:42:32;7.60;99.90
18191;DHT22;47004;51.366;12.348;2024-02-14T08:44:34;7.60;99.90
18191;DHT22;47004;51.366;12.348;2024-02-14T08:46:36;7.60;99.90
18191;DHT22;47004;51.366;12.348;2024-02-14T08:48:38;7.60;99.90
18191;DHT22;47004;51.366;12.348;2024-02-14T08:50:46;7.70;99.90
18191;DHT22;47004;51.366;12.348;2024-02-14T08:52:48;7.80;99.90
18191;DHT22;47004;51.366;12.348;2024-02-14T08:54:51;7.80;99.90
18191;DHT22;47004;51.366;12.348;2024-02-14T08:56:52;7.90;99.90
18191;DHT22;47004;51.366;12.348;2024-02-14T08:58:56;7.90;99.90
18191;DHT22;47004;51.366;12.348;2024-02-14T09:00:58;8.00;99.90
18191;DHT22;47004;51.366;12.348;2024-02-14T09:03:00;8.10;99.90
18191;DHT22;47004;51.366;12.348;2024-02-14T09:05:03;8.10;99.90
18191;DHT22;47004;51.366;12.348;2024-02-14T09:07:06;8.10;99.90
18191;DHT22;47004;51.366;12.348;2024-02-14T09:09:08;8.20;99.90
18191;DHT22;47004;51.366;12.348;2024-02-14T09:11:16;8.20;99.90
18191;DHT22;47004;51.366;12.348;2024-02-14T09:13:18;8.30;99.90
18191;DHT22;47004;51.366;12.348;2024-02-14T09:15:20;8.40;99.90
18191;DHT22;47004;51.366;12.348;2024-02-14T09:17:26;8.40;99.90
18191;DHT22;47004;51.366;12.348;2024-02-14T09:19:28;8.50;99.90
18191;DHT22;47004;51.366;12.348;2024-02-14T09:21:31;8.50;99.90
18191;DHT22;47004;51.366;12.348;2024-02-14T09:23:34;8.60;99.90
18191;DHT22;47004;51.366;12.348;2024-02-14T09:25:40;8.70;99.90
18191;DHT22;47004;51.366;12.348;2024-02-14T09:27:43;8.70;99.90
18191;DHT22;47004;51.366;12.348;2024-02-14T09:29:47;8.80;99.90
18191;DHT22;47004;51.366;12.348;2024-02-14T09:31:53;8.90;99.90
18191;DHT22;47004;51.366;12.348;2024-02-14T09:33:55;9.00;99.90
18191;DHT22;47004;51.366;12.348;2024-02-14T09:35:58;9.10;99.90
18191;DHT22;47004;51.366;12.348;2024-02-14T09:38:01;9.10;99.90
18191;DHT22;47004;51.366;12.348;2024-02-14T09:40:04;9.20;99.90
18191;DHT22;47004;51.366;12.348;2024-02-14T09:42:09;9.20;99.90
18191;DHT22;47004;51.366;12.348;2024-02-14T09:44:13;9.20;99.90
18191;DHT22;47004;51.366;12.348;2024-02-14T09:46:15;9.20;99.90
18191;DHT22;47004;51.366;12.348;2024-02-14T09:48:18;9.20;99.90
18191;DHT22;47004;51.366;12.348;2024-02-14T09:50:21;9.30;99.90
18191;DHT22;47004;51.366;12.348;2024-02-14T09:52:24;9.30;99.90
18191;DHT22;47004;51.366;12.348;2024-02-14T09:54:25;9.40;99.90
18191;DHT22;47004;51.366;12.348;2024-02-14T09:56:30;9.50;99.90
18191;DHT22;47004;51.366;12.348;2024-02-14T09:58:32;9.50;99.90
18191;DHT22;47004;51.366;12.348;2024-02-14T10:00:36;9.60;99.90
18191;DHT22;47004;51.366;12.348;2024-02-14T10:02:38;9.70;99.90
18191;DHT22;47004;51.366;12.348;2024-02-14T10:04:40;9.80;99.90
18191;DHT22;47004;51.366;12.348;2024-02-14T10:06:42;9.80;99.90
18191;DHT22;47004;51.366;12.348;2024-02-14T10:08:44;9.90;99.90
18191;DHT22;47004;51.366;12.348;2024-02-14T10:10:45;10.00;99.90
18191;DHT22;47004;51.366;12.348;2024-02-14T10:12:47;10.10;99.90
18191;DHT22;47004;51.366;12.348;2024-02-14T10:14:48;10.10;99.90
18191;DHT22;47004;51.366;12.348;2024-02-14T10:16:51;10.10;99.90
18191;DHT22;47004;51.366;12.348;2024-02-14T10:18:53;10.00;99.90
18191;DHT22;47004;51.366;12.348;2024-02-14T10:20:55;10.00;99.90
18191;DHT22;47004;51.366;12.348;2024-02-14T10:23:01;10.10;99.90
18191;DHT22;47004;51.366;12.348;2024-02-14T10:25:04;10.20;99.90
18191;DHT22;47004;51.366;12.348;2024-02-14T10:27:11;10.10;99.90
18191;DHT22;47004;51.366;12.348;2024-02-14T10:29:13;10.10;99.90
18191;DHT22;47004;51.366;12.348;2024-02-14T10:31:15;10.00;99.90
18191;DHT22;47004;51.366;12.348;2024-02-14T10:33:18;10.00;99.90
18191;DHT22;47004;51.366;12.348;2024-02-14T10:35:21;9.90;99.90
18191;DHT22;47004;51.366;12.348;2024-02-14T10:37:24;9.80;99.90
18191;DHT22;47004;51.366;12.348;2024-02-14T10:39:26;9.70;99.90
18191;DHT22;47004;51.366;12.348;2024-02-14T10:41:30;9.60;99.90
18191;DHT22;47004;51.366;12.348;2024-02-14T10:43:35;9.50;99.90
18191;DHT22;47004;51.366;12.348;2024-02-14T10:45:38;9.50;99.90
18191;DHT22;47004;51.366;12.348;2024-02-14T10:47:43;9.40;99.90
18191;DHT22;47004;51.366;12.348;2024-02-14T10:49:51;9.30;99.90
18191;DHT22;47004;51.366;12.348;2024-02-14T10:51:56;9.30;99.90
18191;DHT22;47004;51.366;12.348;2024-02-14T10:54:14;9.10;99.90
18191;DHT22;47004;51.366;12.348;2024-02-14T10:56:18;9.30;99.90
18191;DHT22;47004;51.366;12.348;2024-02-14T10:58:21;9.30;99.90
18191;DHT22;47004;51.366;12.348;2024-02-14T11:00:25;9.30;99.90
18191;DHT22;47004;51.366;12.348;2024-02-14T11:02:28;9.30;99.90
18191;DHT22;47004;51.366;12.348;2024-02-14T11:04:36;9.20;99.90
18191;DHT22;47004;51.366;12.348;2024-02-14T11:06:46;9.20;99.90
18191;DHT22;47004;51.366;12.348;2024-02-14T11:08:57;9.20;99.90
18191;DHT22;47004;51.366;12.348;2024-02-14T11:11:01;9.20;99.90
18191;DHT22;47004;51.366;12.348;2024-02-14T11:13:03;9.20;99.90
18191;DHT22;47004;51.366;12.348;2024-02-14T11:15:10;9.20;99.90
18191;DHT22;47004;51.366;12.348;2024-02-14T11:17:12;9.20;99.90
18191;DHT22;47004;51.366;12.348;2024-02-14T11:19:14;9.20;99.90
18191;DHT22;47004;51.366;12.348;2024-02-14T11:21:18;9.20;99.90
18191;DHT22;47004;51.366;12.348;2024-02-14T11:23:23;9.20;99.90
18191;DHT22;47004;51.366;12.348;2024-02-14T11:25:31;9.20;99.90
18191;DHT22;47004;51.366;12.348;2024-02-14T11:27:34;9.20;99.90
18191;DHT22;47004;51.366;12.348;2024-02-14T11:29:38;9.20;99.90
18191;DHT22;47004;51.366;12.348;2024-02-14T11:31:41;9.30;99.90
18191;DHT22;47004;51.366;12.348;2024-02-14T11:33:47;9.40;99.90
18191;DHT22;47004;51.366;12.348;2024-02-14T11:35:52;9.40;99.90
18191;DHT22;47004;51.366;12.348;2024-02-14T11:37:54;9.50;99.90
18191;DHT22;47004;51.366;12.348;2024-02-14T11:39:58;9.60;99.90
18191;DHT22;47004;51.366;12.348;2024-02-14T11:42:00;9.70;99.90
18191;DHT22;47004;51.366;12.348;2024-02-14T11:44:03;9.80;99.90
18191;DHT22;47004;51.366;12.348;2024-02-14T11:46:04;10.00;99.90
18191;DHT22;47004;51.366;12.348;2024-02-14T11:48:08;10.10;99.90
18191;DHT22;47004;51.366;12.348;2024-02-14T11:50:12;10.20;99.90
18191;DHT22;47004;51.366;12.348;2024-02-14T11:52:14;10.30;99.90
18191;DHT22;47004;51.366;12.348;2024-02-14T11:54:16;10.40;99.90
18191;DHT22;47004;51.366;12.348;2024-02-14T11:56:22;10.40;99.90
18191;DHT22;47004;51.366;12.348;2024-02-14T11:58:26;10.30;99.90
18191;DHT22;47004;51.366;12.348;2024-02-14T12:00:28;10.30;99.90
18191;DHT22;47004;51.366;12.348;2024-02-14T12:02:31;10.20;99.90
18191;DHT22;47004;51.366;12.348;2024-02-14T12:04:33;10.20;99.90
18191;DHT22;47004;51.366;12.348;2024-02-14T12:06:45;10.20;99.90
18191;DHT22;47004;51.366;12.348;2024-02-14T12:08:48;10.20;99.90
18191;DHT22;47004;51.366;12.348;2024-02-14T12:10:49;10.30;99.90
18191;DHT22;47004;51.366;12.348;2024-02-14T12:12:53;10.40;99.90
18191;DHT22;47004;51.366;12.348;2024-02-14T12:14:55;10.50;99.90
18191;DHT22;47004;51.366;12.348;2024-02-14T12:17:00;10.50;99.90
18191;DHT22;47004;51.366;12.348;2024-02-14T12:19:04;10.60;99.90
18191;DHT22;47004;51.366;12.348;2024-02-14T12:21:08;10.60;99.90
18191;DHT22;47004;51.366;12.348;2024-02-14T12:23:14;10.70;99.90
18191;DHT22;47004;51.366;12.348;2024-02-14T12:25:18;10.70;99.90
18191;DHT22;47004;51.366;12.348;2024-02-14T12:27:20;10.70;99.90
18191;DHT22;47004;51.366;12.348;2024-02-14T12:29:26;10.80;99.90
18191;DHT22;47004;51.366;12.348;2024-02-14T12:31:28;10.80;99.90
18191;DHT22;47004;51.366;12.348;2024-02-14T12:33:32;10.80;99.90
18191;DHT22;47004;51.366;12.348;2024-02-14T12:35:35;11.00;99.90
18191;DHT22;47004;51.366;12.348;2024-02-14T12:37:42;11.00;99.90
18191;DHT22;47004;51.366;12.348;2024-02-14T12:39:44;11.00;99.90
18191;DHT22;47004;51.366;12.348;2024-02-14T12:41:46;11.10;99.90
18191;DHT22;47004;51.366;12.348;2024-02-14T12:43:48;11.20;99.90
18191;DHT22;47004;51.366;12.348;2024-02-14T12:45:51;11.10;99.90
18191;DHT22;47004;51.366;12.348;2024-02-14T12:47:53;11.20;99.90
18191;DHT22;47004;51.366;12.348;2024-02-14T12:49:57;11.20;99.90
18191;DHT22;47004;51.366;12.348;2024-02-14T12:52:00;11.30;99.90
18191;DHT22;47004;51.366;12.348;2024-02-14T12:54:02;11.30;99.90